createdAt,value
2024-01-24T00:00:02.452Z,19.76
2024-01-24T00:00:16.540Z,19.76
2024-01-24T00:00:30.611Z,19.77
2024-01-24T00:00:44.701Z,19.77
2024-01-24T00:01:12.740Z,19.77
2024-01-24T00:01:26.810Z,19.76
2024-01-24T00:01:40.811Z,19.76
2024-01-24T00:01:54.822Z,19.76
2024-01-24T00:02:08.818Z,19.76
2024-01-24T00:02:22.855Z,19.76
2024-01-24T00:02:36.870Z,19.76
2024-01-24T00:02:51.107Z,19.75
2024-01-24T00:03:05.353Z,19.75
2024-01-24T00:03:33.431Z,19.75
2024-01-24T00:03:47.525Z,19.74
2024-01-24T00:04:01.585Z,19.74
2024-01-24T00:04:15.735Z,19.74
2024-01-24T00:04:43.732Z,19.73
2024-01-24T00:04:57.751Z,19.74
2024-01-24T00:05:11.805Z,19.74
2024-01-24T00:05:25.824Z,19.74
2024-01-24T00:05:53.794Z,19.74
2024-01-24T00:06:07.846Z,19.75
2024-01-24T00:06:21.868Z,19.74
2024-01-24T00:06:35.922Z,19.75
2024-01-24T00:07:03.933Z,19.74
2024-01-24T00:07:17.911Z,19.74
2024-01-24T00:07:31.906Z,19.74
2024-01-24T00:07:45.895Z,19.72
2024-01-24T00:08:13.883Z,19.74
2024-01-24T00:08:27.867Z,19.74
2024-01-24T00:08:41.856Z,19.72
2024-01-24T00:08:55.852Z,19.73
2024-01-24T00:09:23.844Z,19.72
2024-01-24T00:09:37.953Z,19.70
2024-01-24T00:09:51.966Z,19.72
2024-01-24T00:10:05.961Z,19.71
2024-01-24T00:10:33.957Z,19.72
2024-01-24T00:10:47.998Z,19.72
2024-01-24T00:11:01.994Z,19.72
2024-01-24T00:11:16.020Z,19.71
2024-01-24T00:11:44.007Z,19.72
2024-01-24T00:11:58.111Z,19.72
2024-01-24T00:12:12.207Z,19.71
2024-01-24T00:12:26.309Z,19.73
2024-01-24T00:12:54.327Z,19.73
2024-01-24T00:13:08.402Z,19.73
2024-01-24T00:13:22.391Z,19.71
2024-01-24T00:13:36.376Z,19.73
2024-01-24T00:14:04.329Z,19.73
2024-01-24T00:14:18.333Z,19.73
2024-01-24T00:14:32.342Z,19.73
2024-01-24T00:14:46.328Z,19.74
2024-01-24T00:15:14.402Z,19.73
2024-01-24T00:15:28.444Z,19.72
2024-01-24T00:15:42.499Z,19.72
2024-01-24T00:15:56.570Z,19.72
2024-01-24T00:16:24.536Z,19.72
2024-01-24T00:16:38.530Z,19.71
2024-01-24T00:16:52.593Z,19.71
2024-01-24T00:17:06.616Z,19.72
2024-01-24T00:17:34.633Z,19.71
2024-01-24T00:17:48.727Z,19.71
2024-01-24T00:18:02.881Z,19.70
2024-01-24T00:18:17.015Z,19.70
2024-01-24T00:18:45.269Z,19.69
2024-01-24T00:18:59.457Z,19.70
2024-01-24T00:19:13.535Z,19.70
2024-01-24T00:19:27.803Z,19.70
2024-01-24T00:19:55.803Z,19.70
2024-01-24T00:20:09.786Z,19.72
2024-01-24T00:20:23.766Z,19.71
2024-01-24T00:20:37.744Z,19.71
2024-01-24T00:21:05.687Z,19.72
2024-01-24T00:21:19.716Z,19.72
2024-01-24T00:21:33.820Z,19.70
2024-01-24T00:21:48.092Z,19.72
2024-01-24T00:22:16.137Z,19.71
2024-01-24T00:22:30.122Z,19.70
2024-01-24T00:22:44.104Z,19.71
2024-01-24T00:22:58.100Z,19.70
2024-01-24T00:23:12.102Z,19.70
2024-01-24T00:23:26.089Z,19.71
2024-01-24T00:23:40.075Z,19.70
2024-01-24T00:23:54.072Z,19.70
2024-01-24T00:24:08.058Z,19.69
2024-01-24T00:24:36.057Z,19.69
2024-01-24T00:24:50.124Z,19.69
2024-01-24T00:25:04.173Z,19.68
2024-01-24T00:25:18.157Z,19.68
2024-01-24T00:25:46.113Z,19.69
2024-01-24T00:26:00.136Z,19.69
2024-01-24T00:26:14.139Z,19.69
2024-01-24T00:26:28.122Z,19.69
2024-01-24T00:26:56.086Z,19.68
2024-01-24T00:27:10.073Z,19.68
2024-01-24T00:27:24.096Z,19.70
2024-01-24T00:27:38.156Z,19.69
2024-01-24T00:28:06.371Z,19.69
2024-01-24T00:28:20.375Z,19.70
2024-01-24T00:28:34.407Z,19.71
2024-01-24T00:28:48.386Z,19.70
2024-01-24T00:29:16.359Z,19.70
2024-01-24T00:29:30.356Z,19.69
2024-01-24T00:29:44.361Z,19.69
2024-01-24T00:29:58.348Z,19.69
2024-01-24T00:30:26.350Z,19.69
2024-01-24T00:30:40.364Z,19.68
2024-01-24T00:30:54.437Z,19.68
2024-01-24T00:31:08.490Z,19.67
2024-01-24T00:31:36.503Z,19.69
2024-01-24T00:31:50.488Z,19.70
2024-01-24T00:32:04.484Z,19.69
2024-01-24T00:32:18.488Z,19.69
2024-01-24T00:32:46.462Z,19.69
2024-01-24T00:33:00.590Z,19.70
2024-01-24T00:33:14.666Z,19.69
2024-01-24T00:33:28.698Z,19.70
2024-01-24T00:33:56.727Z,19.70
2024-01-24T00:34:10.871Z,19.70
2024-01-24T00:34:25.023Z,19.70
2024-01-24T00:34:39.053Z,19.69
2024-01-24T00:35:07.032Z,19.68
2024-01-24T00:35:21.026Z,19.67
2024-01-24T00:35:35.048Z,19.69
2024-01-24T00:35:49.024Z,19.68
2024-01-24T00:36:16.998Z,19.67
2024-01-24T00:36:31.026Z,19.67
2024-01-24T00:36:45.047Z,19.68
2024-01-24T00:36:59.054Z,19.67
2024-01-24T00:37:27.026Z,19.66
2024-01-24T00:37:41.010Z,19.65
2024-01-24T00:37:54.999Z,19.65
2024-01-24T00:38:08.993Z,19.66
2024-01-24T00:38:36.990Z,19.66
2024-01-24T00:38:50.987Z,19.67
2024-01-24T00:39:05.006Z,19.67
2024-01-24T00:39:19.054Z,19.67
2024-01-24T00:39:47.099Z,19.66
2024-01-24T00:40:01.173Z,19.66
2024-01-24T00:40:15.172Z,19.66
2024-01-24T00:40:29.150Z,19.65
2024-01-24T00:40:57.118Z,19.66
2024-01-24T00:41:11.138Z,19.65
2024-01-24T00:41:25.169Z,19.65
2024-01-24T00:41:39.171Z,19.65
2024-01-24T00:42:07.128Z,19.63
2024-01-24T00:42:21.125Z,19.64
2024-01-24T00:42:35.157Z,19.64
2024-01-24T00:42:49.234Z,19.65
2024-01-24T00:43:17.212Z,19.65
2024-01-24T00:43:31.231Z,19.66
2024-01-24T00:43:45.213Z,19.66
2024-01-24T00:43:59.199Z,19.67
2024-01-24T00:44:27.150Z,19.67
2024-01-24T00:44:41.134Z,19.66
2024-01-24T00:44:55.153Z,19.66
2024-01-24T00:45:09.157Z,19.67
2024-01-24T00:45:37.126Z,19.66
2024-01-24T00:45:51.412Z,19.67
2024-01-24T00:46:05.514Z,19.67
2024-01-24T00:46:19.501Z,19.66
2024-01-24T00:46:47.447Z,19.67
2024-01-24T00:47:01.448Z,19.66
2024-01-24T00:47:15.466Z,19.66
2024-01-24T00:47:29.497Z,19.67
2024-01-24T00:47:57.536Z,19.66
2024-01-24T00:48:11.677Z,19.66
2024-01-24T00:48:25.789Z,19.67
2024-01-24T00:48:39.882Z,19.66
2024-01-24T00:48:54.015Z,19.65
2024-01-24T00:49:08.085Z,19.65
2024-01-24T00:49:22.247Z,19.66
2024-01-24T00:49:36.331Z,19.64
2024-01-24T00:49:50.373Z,19.64
2024-01-24T00:50:18.363Z,19.64
2024-01-24T00:50:32.335Z,19.65
2024-01-24T00:50:46.333Z,19.65
2024-01-24T00:51:00.306Z,19.65
2024-01-24T00:51:28.291Z,19.63
2024-01-24T00:51:42.348Z,19.64
2024-01-24T00:51:56.364Z,19.63
2024-01-24T00:52:10.364Z,19.64
2024-01-24T00:52:38.314Z,19.64
2024-01-24T00:52:52.299Z,19.63
2024-01-24T00:53:06.282Z,19.63
2024-01-24T00:53:20.274Z,19.64
2024-01-24T00:53:48.245Z,19.63
2024-01-24T00:54:02.246Z,19.64
2024-01-24T00:54:16.288Z,19.63
2024-01-24T00:54:30.391Z,19.63
2024-01-24T00:54:58.348Z,19.63
2024-01-24T00:55:12.344Z,19.63
2024-01-24T00:55:26.359Z,19.64
2024-01-24T00:55:40.336Z,19.62
2024-01-24T00:56:08.311Z,19.62
2024-01-24T00:56:22.303Z,19.62
2024-01-24T00:56:36.322Z,19.63
2024-01-24T00:56:50.309Z,19.62
2024-01-24T00:57:18.299Z,19.62
2024-01-24T00:57:32.378Z,19.62
2024-01-24T00:57:46.429Z,19.62
2024-01-24T00:58:00.528Z,19.61
2024-01-24T00:58:28.469Z,19.64
2024-01-24T00:58:42.454Z,19.63
2024-01-24T00:58:56.485Z,19.63
2024-01-24T00:59:10.506Z,19.62
2024-01-24T00:59:38.474Z,19.63
2024-01-24T00:59:52.462Z,19.64
2024-01-24T01:00:06.464Z,19.63
2024-01-24T01:00:20.470Z,19.63
2024-01-24T01:00:48.596Z,19.64
2024-01-24T01:01:02.752Z,19.64
2024-01-24T01:01:16.883Z,19.64
2024-01-24T01:01:30.926Z,19.65
2024-01-24T01:01:58.865Z,19.65
2024-01-24T01:02:12.856Z,19.64
2024-01-24T01:02:26.867Z,19.65
2024-01-24T01:02:40.922Z,19.65
2024-01-24T01:03:08.930Z,19.64
2024-01-24T01:03:23.081Z,19.64
2024-01-24T01:03:37.250Z,19.64
2024-01-24T01:03:51.396Z,19.63
2024-01-24T01:04:19.483Z,19.62
2024-01-24T01:04:33.512Z,19.63
2024-01-24T01:04:47.518Z,19.62
2024-01-24T01:05:01.558Z,19.63
2024-01-24T01:05:29.612Z,19.61
2024-01-24T01:05:43.683Z,19.62
2024-01-24T01:05:57.685Z,19.61
2024-01-24T01:06:11.696Z,19.62
2024-01-24T01:06:39.689Z,19.62
2024-01-24T01:06:53.709Z,19.61
2024-01-24T01:07:07.697Z,19.61
2024-01-24T01:07:21.685Z,19.62
2024-01-24T01:07:49.646Z,19.62
2024-01-24T01:08:03.668Z,19.61
2024-01-24T01:08:17.653Z,19.62
2024-01-24T01:08:31.646Z,19.61
2024-01-24T01:08:59.588Z,19.61
2024-01-24T01:09:13.608Z,19.60
2024-01-24T01:09:27.694Z,19.60
2024-01-24T01:09:41.720Z,19.60
2024-01-24T01:10:09.761Z,19.59
2024-01-24T01:10:23.763Z,19.59
2024-01-24T01:10:37.765Z,19.59
2024-01-24T01:10:51.771Z,19.59
2024-01-24T01:11:19.772Z,19.60
2024-01-24T01:11:33.755Z,19.59
2024-01-24T01:11:47.758Z,19.60
2024-01-24T01:12:01.739Z,19.60
2024-01-24T01:12:29.877Z,19.60
2024-01-24T01:12:43.932Z,19.61
2024-01-24T01:12:58.129Z,19.60
2024-01-24T01:13:12.194Z,19.60
2024-01-24T01:13:40.159Z,19.60
2024-01-24T01:13:54.137Z,19.61
2024-01-24T01:14:08.156Z,19.59
2024-01-24T01:14:22.144Z,19.60
2024-01-24T01:14:36.132Z,19.59
2024-01-24T01:14:50.401Z,19.60
2024-01-24T01:15:04.397Z,19.60
2024-01-24T01:15:18.397Z,19.60
2024-01-24T01:15:32.517Z,19.60
2024-01-24T01:16:00.553Z,19.60
2024-01-24T01:16:14.553Z,19.60
2024-01-24T01:16:28.526Z,19.61
2024-01-24T01:16:42.601Z,19.59
2024-01-24T01:17:10.551Z,19.60
2024-01-24T01:17:24.594Z,19.60
2024-01-24T01:17:38.608Z,19.58
2024-01-24T01:17:52.615Z,19.59
2024-01-24T01:18:20.812Z,19.58
2024-01-24T01:18:34.956Z,19.59
2024-01-24T01:18:48.996Z,19.57
2024-01-24T01:19:03.158Z,19.57
2024-01-24T01:19:31.256Z,19.57
2024-01-24T01:19:45.243Z,19.58
2024-01-24T01:19:59.261Z,19.57
2024-01-24T01:20:13.246Z,19.58
2024-01-24T01:20:41.254Z,19.58
2024-01-24T01:20:55.260Z,19.58
2024-01-24T01:21:09.246Z,19.57
2024-01-24T01:21:23.330Z,19.58
2024-01-24T01:21:51.414Z,19.58
2024-01-24T01:22:05.568Z,19.57
2024-01-24T01:22:19.815Z,19.58
2024-01-24T01:22:33.825Z,19.58
2024-01-24T01:23:01.805Z,19.58
2024-01-24T01:23:15.792Z,19.58
2024-01-24T01:23:29.802Z,19.59
2024-01-24T01:23:43.789Z,19.57
2024-01-24T01:24:11.774Z,19.59
2024-01-24T01:24:25.802Z,19.59
2024-01-24T01:24:39.876Z,19.60
2024-01-24T01:24:53.902Z,19.58
2024-01-24T01:25:21.877Z,19.59
2024-01-24T01:25:35.851Z,19.60
2024-01-24T01:25:49.884Z,19.59
2024-01-24T01:26:03.868Z,19.59
2024-01-24T01:26:31.863Z,19.59
2024-01-24T01:26:45.867Z,19.59
2024-01-24T01:26:59.859Z,19.58
2024-01-24T01:27:13.912Z,19.58
2024-01-24T01:27:42.038Z,19.58
2024-01-24T01:27:57.485Z,19.59
2024-01-24T01:28:08.972Z,19.58
2024-01-24T01:28:23.054Z,19.58
2024-01-24T01:28:51.069Z,19.58
2024-01-24T01:29:05.069Z,19.57
2024-01-24T01:29:19.062Z,19.59
2024-01-24T01:29:33.046Z,19.59
2024-01-24T01:30:01.027Z,19.58
2024-01-24T01:30:15.059Z,19.58
2024-01-24T01:30:29.068Z,19.59
2024-01-24T01:30:43.173Z,19.57
2024-01-24T01:31:11.157Z,19.57
2024-01-24T01:31:25.186Z,19.58
2024-01-24T01:31:39.186Z,19.58
2024-01-24T01:31:53.172Z,19.57
2024-01-24T01:32:21.261Z,19.58
2024-01-24T01:32:35.298Z,19.57
2024-01-24T01:32:49.364Z,19.56
2024-01-24T01:33:03.451Z,19.56
2024-01-24T01:33:31.547Z,19.56
2024-01-24T01:33:45.770Z,19.56
2024-01-24T01:33:59.897Z,19.56
2024-01-24T01:34:14.011Z,19.56
2024-01-24T01:34:42.128Z,19.56
2024-01-24T01:34:56.158Z,19.55
2024-01-24T01:35:10.152Z,19.54
2024-01-24T01:35:24.174Z,19.55
2024-01-24T01:35:54.589Z,19.57
2024-01-24T01:36:14.255Z,19.56
2024-01-24T01:36:23.511Z,19.54
2024-01-24T01:36:32.868Z,19.55
2024-01-24T01:37:00.967Z,19.56
2024-01-24T01:37:14.997Z,19.57
2024-01-24T01:37:28.984Z,19.56
2024-01-24T01:37:43.111Z,19.56
2024-01-24T01:38:11.085Z,19.56
2024-01-24T01:38:25.071Z,19.55
2024-01-24T01:38:39.092Z,19.56
2024-01-24T01:38:53.223Z,19.55
2024-01-24T01:39:21.266Z,19.53
2024-01-24T01:39:35.329Z,19.53
2024-01-24T01:39:49.394Z,19.55
2024-01-24T01:40:03.481Z,19.55
2024-01-24T01:40:17.514Z,19.55
2024-01-24T01:40:31.506Z,19.55
2024-01-24T01:40:45.520Z,19.55
2024-01-24T01:40:59.519Z,19.54
2024-01-24T01:41:13.520Z,19.55
2024-01-24T01:41:41.490Z,19.55
2024-01-24T01:41:55.475Z,19.56
2024-01-24T01:42:09.506Z,19.55
2024-01-24T01:42:23.564Z,19.55
2024-01-24T01:42:51.775Z,19.56
2024-01-24T01:43:05.879Z,19.56
2024-01-24T01:43:19.875Z,19.55
2024-01-24T01:43:33.898Z,19.54
2024-01-24T01:44:01.888Z,19.55
2024-01-24T01:44:15.875Z,19.54
2024-01-24T01:44:29.868Z,19.55
2024-01-24T01:44:43.849Z,19.54
2024-01-24T01:45:11.850Z,19.55
2024-01-24T01:45:25.888Z,19.54
2024-01-24T01:45:39.913Z,19.56
2024-01-24T01:45:53.944Z,19.54
2024-01-24T01:46:21.938Z,19.55
2024-01-24T01:46:35.931Z,19.54
2024-01-24T01:46:49.910Z,19.56
2024-01-24T01:47:03.916Z,19.54
2024-01-24T01:47:31.927Z,19.55
2024-01-24T01:47:45.960Z,19.55
2024-01-24T01:48:00.100Z,19.56
2024-01-24T01:48:14.349Z,19.56
2024-01-24T01:48:42.487Z,19.55
2024-01-24T01:48:56.719Z,19.55
2024-01-24T01:49:11.003Z,19.57
2024-01-24T01:49:25.214Z,19.56
2024-01-24T01:49:53.314Z,19.57
2024-01-24T01:50:07.362Z,19.56
2024-01-24T01:50:21.344Z,19.56
2024-01-24T01:50:35.332Z,19.56
2024-01-24T01:51:03.314Z,19.56
2024-01-24T01:51:17.336Z,19.55
2024-01-24T01:51:31.383Z,19.55
2024-01-24T01:51:45.436Z,19.55
2024-01-24T01:52:13.403Z,19.54
2024-01-24T01:52:27.379Z,19.56
2024-01-24T01:52:41.380Z,19.54
2024-01-24T01:52:55.359Z,19.55
2024-01-24T01:53:23.334Z,19.52
2024-01-24T01:53:37.379Z,19.52
2024-01-24T01:53:51.380Z,19.52
2024-01-24T01:54:05.956Z,19.51
2024-01-24T01:54:33.984Z,19.52
2024-01-24T01:54:48.016Z,19.52
2024-01-24T01:55:02.058Z,19.51
2024-01-24T01:55:16.072Z,19.51
2024-01-24T01:55:44.031Z,19.51
2024-01-24T01:55:58.032Z,19.51
2024-01-24T01:56:12.009Z,19.52
2024-01-24T01:56:26.019Z,19.52
2024-01-24T01:56:53.987Z,19.51
2024-01-24T01:57:07.993Z,19.52
2024-01-24T01:57:22.018Z,19.52
2024-01-24T01:57:36.070Z,19.51
2024-01-24T01:58:04.141Z,19.52
2024-01-24T01:58:18.128Z,19.51
2024-01-24T01:58:32.106Z,19.52
2024-01-24T01:58:46.118Z,19.52
2024-01-24T01:59:14.100Z,19.51
2024-01-24T01:59:28.092Z,19.51
2024-01-24T01:59:42.131Z,19.51
2024-01-24T01:59:56.159Z,19.52
2024-01-24T02:00:24.120Z,19.52
2024-01-24T02:00:38.157Z,19.51
2024-01-24T02:00:52.303Z,19.52
2024-01-24T02:01:06.512Z,19.51
2024-01-24T02:01:20.722Z,19.51
2024-01-24T02:01:34.821Z,19.52
2024-01-24T02:01:48.917Z,19.52
2024-01-24T02:02:03.598Z,19.51
2024-01-24T02:02:17.594Z,19.53
2024-01-24T02:02:45.628Z,19.51
2024-01-24T02:02:59.656Z,19.52
2024-01-24T02:03:13.766Z,19.51
2024-01-24T02:03:28.087Z,19.51
2024-01-24T02:03:56.265Z,19.51
2024-01-24T02:04:10.395Z,19.51
2024-01-24T02:04:24.511Z,19.51
2024-01-24T02:04:38.566Z,19.51
2024-01-24T02:05:06.550Z,19.51
2024-01-24T02:05:20.670Z,19.52
2024-01-24T02:05:37.384Z,19.52
2024-01-24T02:05:47.744Z,19.52
2024-01-24T02:06:15.897Z,19.50
2024-01-24T02:06:30.195Z,19.50
2024-01-24T02:06:44.344Z,19.49
2024-01-24T02:06:58.560Z,19.49
2024-01-24T02:07:26.667Z,19.49
2024-01-24T02:07:40.842Z,19.48
2024-01-24T02:07:55.057Z,19.49
2024-01-24T02:08:09.069Z,19.48
2024-01-24T02:08:37.023Z,19.48
2024-01-24T02:08:51.011Z,19.47
2024-01-24T02:09:05.022Z,19.49
2024-01-24T02:09:19.020Z,19.49
2024-01-24T02:09:33.049Z,19.48
2024-01-24T02:09:47.099Z,19.50
2024-01-24T02:10:01.233Z,19.49
2024-01-24T02:10:15.247Z,19.49
2024-01-24T02:10:29.241Z,19.48
2024-01-24T02:10:57.205Z,19.47
2024-01-24T02:11:11.202Z,19.47
2024-01-24T02:11:25.223Z,19.47
2024-01-24T02:11:39.207Z,19.48
2024-01-24T02:12:07.153Z,19.46
2024-01-24T02:12:21.199Z,19.47
2024-01-24T02:12:35.269Z,19.47
2024-01-24T02:12:49.344Z,19.48
2024-01-24T02:13:17.326Z,19.48
2024-01-24T02:13:31.348Z,19.46
2024-01-24T02:13:45.423Z,19.48
2024-01-24T02:13:59.478Z,19.48
2024-01-24T02:14:27.472Z,19.46
2024-01-24T02:14:41.470Z,19.45
2024-01-24T02:14:55.484Z,19.46
2024-01-24T02:15:09.482Z,19.45
2024-01-24T02:15:37.499Z,19.45
2024-01-24T02:15:51.605Z,19.46
2024-01-24T02:16:05.636Z,19.48
2024-01-24T02:16:21.422Z,19.47
2024-01-24T02:16:46.990Z,19.47
2024-01-24T02:17:00.997Z,19.47
2024-01-24T02:17:15.016Z,19.47
2024-01-24T02:17:29.068Z,19.47
2024-01-24T02:17:57.054Z,19.48
2024-01-24T02:18:11.390Z,19.47
2024-01-24T02:18:25.489Z,19.49
2024-01-24T02:18:39.583Z,19.48
2024-01-24T02:19:07.730Z,19.46
2024-01-24T02:19:21.836Z,19.46
2024-01-24T02:19:35.916Z,19.47
2024-01-24T02:19:49.995Z,19.46
2024-01-24T02:20:18.011Z,19.46
2024-01-24T02:20:31.993Z,19.46
2024-01-24T02:20:46.012Z,19.45
2024-01-24T02:21:00.025Z,19.46
2024-01-24T02:21:28.011Z,19.47
2024-01-24T02:21:42.045Z,19.46
2024-01-24T02:21:56.111Z,19.45
2024-01-24T02:22:10.135Z,19.46
2024-01-24T02:22:24.145Z,19.45
2024-01-24T02:22:38.157Z,19.46
2024-01-24T02:22:52.132Z,19.45
2024-01-24T02:23:06.136Z,19.45
2024-01-24T02:23:20.123Z,19.46
2024-01-24T02:23:48.110Z,19.46
2024-01-24T02:24:02.087Z,19.46
2024-01-24T02:24:16.116Z,19.46
2024-01-24T02:24:30.235Z,19.46
2024-01-24T02:24:58.318Z,19.46
2024-01-24T02:25:12.327Z,19.46
2024-01-24T02:25:26.303Z,19.46
2024-01-24T02:25:40.321Z,19.46
2024-01-24T02:26:08.260Z,19.44
2024-01-24T02:26:22.264Z,19.45
2024-01-24T02:26:36.252Z,19.44
2024-01-24T02:26:50.236Z,19.44
2024-01-24T02:27:18.993Z,19.45
2024-01-24T02:27:33.036Z,19.45
2024-01-24T02:27:48.031Z,19.44
2024-01-24T02:27:59.648Z,19.43
2024-01-24T02:28:27.615Z,19.44
2024-01-24T02:28:41.620Z,19.44
2024-01-24T02:28:55.602Z,19.44
2024-01-24T02:29:09.640Z,19.42
2024-01-24T02:29:37.639Z,19.43
2024-01-24T02:29:51.699Z,19.44
2024-01-24T02:30:18.512Z,19.45
2024-01-24T02:30:32.531Z,19.44
2024-01-24T02:30:46.551Z,19.44
2024-01-24T02:31:00.799Z,19.43
2024-01-24T02:31:28.772Z,19.42
2024-01-24T02:31:42.790Z,19.42
2024-01-24T02:31:56.774Z,19.43
2024-01-24T02:32:10.787Z,19.44
2024-01-24T02:32:38.842Z,19.45
2024-01-24T02:32:52.932Z,19.44
2024-01-24T02:33:07.081Z,19.44
2024-01-24T02:33:21.263Z,19.45
2024-01-24T02:33:49.440Z,19.45
2024-01-24T02:34:03.555Z,19.46
2024-01-24T02:34:17.735Z,19.46
2024-01-24T02:34:32.053Z,19.45
2024-01-24T02:35:00.279Z,19.46
2024-01-24T02:35:14.315Z,19.46
2024-01-24T02:35:28.321Z,19.46
2024-01-24T02:35:42.353Z,19.44
2024-01-24T02:36:10.354Z,19.44
2024-01-24T02:36:24.390Z,19.45
2024-01-24T02:36:38.492Z,19.46
2024-01-24T02:36:52.491Z,19.44
2024-01-24T02:37:20.461Z,19.43
2024-01-24T02:37:34.505Z,19.43
2024-01-24T02:37:48.499Z,19.44
2024-01-24T02:38:02.549Z,19.43
2024-01-24T02:38:30.489Z,19.42
2024-01-24T02:38:44.460Z,19.42
2024-01-24T02:38:59.081Z,19.41
2024-01-24T02:39:13.216Z,19.41
2024-01-24T02:39:41.222Z,19.39
2024-01-24T02:39:55.287Z,19.40
2024-01-24T02:40:09.323Z,19.39
2024-01-24T02:40:23.438Z,19.41
2024-01-24T02:40:51.404Z,19.41
2024-01-24T02:41:05.397Z,19.41
2024-01-24T02:41:19.384Z,19.41
2024-01-24T02:41:33.375Z,19.42
2024-01-24T02:42:01.354Z,19.40
2024-01-24T02:42:15.432Z,19.41
2024-01-24T02:42:29.560Z,19.40
2024-01-24T02:42:43.597Z,19.41
2024-01-24T02:42:57.614Z,19.42
2024-01-24T02:43:11.607Z,19.41
2024-01-24T02:43:25.658Z,19.41
2024-01-24T02:43:39.670Z,19.40
2024-01-24T02:43:53.713Z,19.42
2024-01-24T02:44:21.692Z,19.42
2024-01-24T02:44:35.677Z,19.41
2024-01-24T02:44:49.665Z,19.42
2024-01-24T02:45:03.674Z,19.42
2024-01-24T02:45:31.723Z,19.42
2024-01-24T02:45:45.871Z,19.43
2024-01-24T02:45:59.911Z,19.44
2024-01-24T02:46:13.907Z,19.44
2024-01-24T02:46:41.874Z,19.44
2024-01-24T02:46:55.852Z,19.43
2024-01-24T02:47:09.838Z,19.43
2024-01-24T02:47:23.809Z,19.44
2024-01-24T02:47:51.791Z,19.43
2024-01-24T02:48:06.030Z,19.43
2024-01-24T02:48:20.270Z,19.43
2024-01-24T02:48:34.362Z,19.42
2024-01-24T02:49:02.622Z,19.42
2024-01-24T02:49:16.845Z,19.43
2024-01-24T02:49:30.963Z,19.42
2024-01-24T02:49:45.202Z,19.43
2024-01-24T02:50:15.085Z,19.44
2024-01-24T02:50:26.674Z,19.43
2024-01-24T02:50:40.666Z,19.43
2024-01-24T02:50:54.665Z,19.43
2024-01-24T02:51:22.674Z,19.42
2024-01-24T02:51:36.812Z,19.41
2024-01-24T02:51:50.883Z,19.42
2024-01-24T02:52:04.955Z,19.40
2024-01-24T02:52:32.901Z,19.39
2024-01-24T02:52:46.878Z,19.41
2024-01-24T02:53:00.855Z,19.41
2024-01-24T02:53:14.849Z,19.41
2024-01-24T02:53:42.821Z,19.40
2024-01-24T02:53:56.814Z,19.41
2024-01-24T02:54:10.856Z,19.40
2024-01-24T02:54:24.960Z,19.43
2024-01-24T02:54:53.016Z,19.42
2024-01-24T02:55:07.082Z,19.42
2024-01-24T02:55:21.066Z,19.42
2024-01-24T02:55:35.050Z,19.43
2024-01-24T02:55:49.049Z,19.42
2024-01-24T02:56:04.016Z,19.42
2024-01-24T02:56:18.000Z,19.42
2024-01-24T02:56:31.979Z,19.40
2024-01-24T02:56:45.988Z,19.40
2024-01-24T02:57:14.012Z,19.41
2024-01-24T02:57:28.060Z,19.41
2024-01-24T02:57:42.057Z,19.41
2024-01-24T02:57:56.096Z,19.40
2024-01-24T02:58:24.128Z,19.39
2024-01-24T02:58:38.148Z,19.39
2024-01-24T02:58:52.154Z,19.39
2024-01-24T02:59:06.149Z,19.39
2024-01-24T02:59:34.220Z,19.38
2024-01-24T02:59:48.246Z,19.38
2024-01-24T03:00:02.261Z,19.38
2024-01-24T03:00:16.357Z,19.38
2024-01-24T03:00:44.453Z,19.36
2024-01-24T03:00:58.648Z,19.38
2024-01-24T03:01:12.870Z,19.37
2024-01-24T03:01:26.957Z,19.37
2024-01-24T03:01:54.944Z,19.36
2024-01-24T03:02:08.945Z,19.35
2024-01-24T03:02:22.955Z,19.35
2024-01-24T03:02:36.956Z,19.35
2024-01-24T03:03:04.914Z,19.35
2024-01-24T03:03:19.035Z,19.35
2024-01-24T03:03:33.076Z,19.35
2024-01-24T03:03:47.343Z,19.35
2024-01-24T03:04:01.446Z,19.34
2024-01-24T03:04:15.526Z,19.34
2024-01-24T03:04:29.693Z,19.34
2024-01-24T03:04:43.811Z,19.35
2024-01-24T03:04:57.860Z,19.34
2024-01-24T03:05:25.863Z,19.35
2024-01-24T03:05:39.849Z,19.35
2024-01-24T03:05:53.865Z,19.35
2024-01-24T03:06:07.949Z,19.35
2024-01-24T03:06:36.038Z,19.36
2024-01-24T03:06:50.139Z,19.38
2024-01-24T03:07:04.315Z,19.37
2024-01-24T03:07:18.487Z,19.36
2024-01-24T03:07:46.515Z,19.37
2024-01-24T03:08:00.542Z,19.37
2024-01-24T03:08:14.520Z,19.37
2024-01-24T03:08:28.513Z,19.38
2024-01-24T03:08:56.457Z,19.38
2024-01-24T03:09:10.489Z,19.38
2024-01-24T03:09:24.564Z,19.39
2024-01-24T03:09:38.644Z,19.40
2024-01-24T03:10:06.644Z,19.39
2024-01-24T03:10:20.645Z,19.38
2024-01-24T03:10:34.630Z,19.38
2024-01-24T03:10:48.624Z,19.38
2024-01-24T03:11:16.619Z,19.37
2024-01-24T03:11:30.597Z,19.38
2024-01-24T03:11:44.590Z,19.37
2024-01-24T03:11:58.594Z,19.37
2024-01-24T03:12:12.668Z,19.38
2024-01-24T03:12:26.703Z,19.38
2024-01-24T03:12:40.815Z,19.37
2024-01-24T03:12:54.969Z,19.39
2024-01-24T03:13:09.108Z,19.38
2024-01-24T03:13:37.146Z,19.37
2024-01-24T03:13:51.111Z,19.37
2024-01-24T03:14:05.116Z,19.37
2024-01-24T03:14:19.102Z,19.37
2024-01-24T03:14:47.071Z,19.36
2024-01-24T03:15:01.060Z,19.37
2024-01-24T03:15:15.144Z,19.36
2024-01-24T03:15:29.238Z,19.37
2024-01-24T03:15:57.264Z,19.35
2024-01-24T03:16:11.326Z,19.35
2024-01-24T03:16:25.339Z,19.35
2024-01-24T03:16:39.315Z,19.35
2024-01-24T03:17:07.269Z,19.35
2024-01-24T03:17:21.277Z,19.36
2024-01-24T03:17:35.398Z,19.35
2024-01-24T03:17:49.437Z,19.36
2024-01-24T03:18:17.575Z,19.35
2024-01-24T03:18:31.749Z,19.36
2024-01-24T03:18:45.924Z,19.36
2024-01-24T03:19:00.081Z,19.36
2024-01-24T03:19:28.136Z,19.35
2024-01-24T03:19:42.375Z,19.35
2024-01-24T03:19:56.481Z,19.36
2024-01-24T03:20:10.504Z,19.35
2024-01-24T03:20:38.463Z,19.36
2024-01-24T03:20:52.466Z,19.35
2024-01-24T03:21:06.453Z,19.35
2024-01-24T03:21:20.508Z,19.35
2024-01-24T03:21:48.621Z,19.36
2024-01-24T03:22:02.718Z,19.35
2024-01-24T03:22:16.736Z,19.35
2024-01-24T03:22:30.723Z,19.36
2024-01-24T03:22:58.868Z,19.35
2024-01-24T03:23:12.877Z,19.34
2024-01-24T03:23:26.868Z,19.33
2024-01-24T03:23:40.877Z,19.35
2024-01-24T03:24:08.830Z,19.34
2024-01-24T03:24:22.936Z,19.34
2024-01-24T03:24:36.996Z,19.35
2024-01-24T03:24:51.086Z,19.33
2024-01-24T03:25:19.124Z,19.34
2024-01-24T03:25:33.114Z,19.35
2024-01-24T03:25:47.126Z,19.35
2024-01-24T03:26:01.120Z,19.35
2024-01-24T03:26:29.066Z,19.35
2024-01-24T03:26:43.074Z,19.36
2024-01-24T03:26:57.085Z,19.36
2024-01-24T03:27:11.114Z,19.36
2024-01-24T03:27:39.209Z,19.35
2024-01-24T03:27:53.353Z,19.36
2024-01-24T03:28:07.503Z,19.35
2024-01-24T03:28:21.498Z,19.36
2024-01-24T03:28:49.490Z,19.35
2024-01-24T03:29:03.480Z,19.36
2024-01-24T03:29:17.454Z,19.36
2024-01-24T03:29:31.434Z,19.36
2024-01-24T03:29:59.407Z,19.37
2024-01-24T03:30:13.451Z,19.35
2024-01-24T03:30:27.479Z,19.35
2024-01-24T03:30:41.522Z,19.34
2024-01-24T03:31:09.560Z,19.34
2024-01-24T03:31:23.562Z,19.33
2024-01-24T03:31:37.558Z,19.33
2024-01-24T03:31:51.545Z,19.34
2024-01-24T03:32:19.516Z,19.32
2024-01-24T03:32:33.539Z,19.31
2024-01-24T03:32:47.569Z,19.32
2024-01-24T03:33:01.648Z,19.33
2024-01-24T03:33:15.745Z,19.32
2024-01-24T03:33:29.794Z,19.33
2024-01-24T03:33:43.878Z,19.33
2024-01-24T03:33:58.219Z,19.33
2024-01-24T03:34:12.438Z,19.33
2024-01-24T03:34:40.513Z,19.33
2024-01-24T03:34:54.534Z,19.33
2024-01-24T03:35:08.670Z,19.33
2024-01-24T03:35:22.726Z,19.35
2024-01-24T03:35:50.683Z,19.34
2024-01-24T03:36:04.662Z,19.34
2024-01-24T03:36:18.701Z,19.34
2024-01-24T03:36:32.803Z,19.34
2024-01-24T03:37:00.810Z,19.35
2024-01-24T03:37:14.825Z,19.34
2024-01-24T03:37:28.858Z,19.34
2024-01-24T03:37:42.851Z,19.34
2024-01-24T03:38:10.827Z,19.35
2024-01-24T03:38:24.807Z,19.35
2024-01-24T03:38:38.808Z,19.34
2024-01-24T03:38:52.812Z,19.35
2024-01-24T03:39:20.802Z,19.34
2024-01-24T03:39:34.839Z,19.34
2024-01-24T03:39:48.877Z,19.33
2024-01-24T03:40:02.974Z,19.34
2024-01-24T03:40:30.980Z,19.34
2024-01-24T03:40:44.984Z,19.35
2024-01-24T03:40:58.987Z,19.35
2024-01-24T03:41:12.973Z,19.33
2024-01-24T03:41:40.943Z,19.34
2024-01-24T03:41:54.942Z,19.34